createdAt,value
2023-04-30T00:00:05.188Z,930.45
2023-04-30T00:01:05.104Z,930.46
2023-04-30T00:02:05.118Z,930.48
2023-04-30T00:03:05.191Z,930.48
2023-04-30T00:04:05.107Z,930.46
2023-04-30T00:05:04.964Z,930.45
2023-04-30T00:06:04.984Z,930.45
2023-04-30T00:07:04.951Z,930.45
2023-04-30T00:08:04.964Z,930.47
2023-04-30T00:09:04.972Z,930.48
2023-04-30T00:10:05.004Z,930.49
2023-04-30T00:11:04.999Z,930.50
2023-04-30T00:12:04.913Z,930.49
2023-04-30T00:13:04.911Z,930.52
2023-04-30T00:14:05.024Z,930.53
2023-04-30T00:15:05.020Z,930.55
2023-04-30T00:16:04.962Z,930.56
2023-04-30T00:17:05.468Z,930.58
2023-04-30T00:18:04.880Z,930.58
2023-04-30T00:19:04.859Z,930.57
2023-04-30T00:20:04.865Z,930.59
2023-04-30T00:21:04.857Z,930.58
2023-04-30T00:22:05.399Z,930.60
2023-04-30T00:23:04.877Z,930.57
2023-04-30T00:24:04.807Z,930.57
2023-04-30T00:25:04.792Z,930.56
2023-04-30T00:26:04.780Z,930.57
2023-04-30T00:27:05.409Z,930.55
2023-04-30T00:28:04.700Z,930.56
2023-04-30T00:29:04.705Z,930.55
2023-04-30T00:30:04.719Z,930.60
2023-04-30T00:31:04.720Z,930.60
2023-04-30T00:32:04.778Z,930.60
2023-04-30T00:33:05.511Z,930.59
2023-04-30T00:34:04.737Z,930.59
2023-04-30T00:35:04.651Z,930.59
2023-04-30T00:36:04.634Z,930.58
2023-04-30T00:37:04.638Z,930.58
2023-04-30T00:38:04.638Z,930.59
2023-04-30T00:39:04.661Z,930.60
2023-04-30T00:40:04.576Z,930.60
2023-04-30T00:41:04.594Z,930.59
2023-04-30T00:42:04.609Z,930.56
2023-04-30T00:43:04.586Z,930.54
2023-04-30T00:44:04.583Z,930.55
2023-04-30T00:45:04.598Z,930.55
2023-04-30T00:46:04.629Z,930.51
2023-04-30T00:47:04.519Z,930.51
2023-04-30T00:48:04.542Z,930.51
2023-04-30T00:49:04.542Z,930.50
2023-04-30T00:50:04.551Z,930.47
2023-04-30T00:51:04.549Z,930.47
2023-04-30T00:52:04.462Z,930.48
2023-04-30T00:53:04.451Z,930.48
2023-04-30T00:54:04.993Z,930.50
2023-04-30T00:55:04.469Z,930.51
2023-04-30T00:56:04.561Z,930.52
2023-04-30T00:57:05.411Z,930.53
2023-04-30T00:58:04.501Z,930.54
2023-04-30T00:59:04.400Z,930.55
2023-04-30T01:00:04.385Z,930.53
2023-04-30T01:01:04.488Z,930.51
2023-04-30T01:02:04.438Z,930.50
2023-04-30T01:03:04.537Z,930.50
2023-04-30T01:04:04.394Z,930.50
2023-04-30T01:05:04.421Z,930.50
2023-04-30T01:06:04.395Z,930.50
2023-04-30T01:07:04.414Z,930.50
2023-04-30T01:08:04.422Z,930.51
2023-04-30T01:09:04.957Z,930.53
2023-04-30T01:10:04.247Z,930.51
2023-04-30T01:11:04.339Z,930.50
2023-04-30T01:12:04.243Z,930.48
2023-04-30T01:13:04.266Z,930.47
2023-04-30T01:14:04.293Z,930.45
2023-04-30T01:15:04.198Z,930.44
2023-04-30T01:16:04.224Z,930.43
2023-04-30T01:17:04.212Z,930.43
2023-04-30T01:18:04.378Z,930.42
2023-04-30T01:19:04.253Z,930.41
2023-04-30T01:20:04.199Z,930.40
2023-04-30T01:21:04.127Z,930.42
2023-04-30T01:22:04.145Z,930.44
2023-04-30T01:23:04.133Z,930.45
2023-04-30T01:24:04.122Z,930.45
2023-04-30T01:25:04.133Z,930.46
2023-04-30T01:26:04.160Z,930.47
2023-04-30T01:27:04.060Z,930.47
2023-04-30T01:28:04.081Z,930.45
2023-04-30T01:29:04.099Z,930.43
2023-04-30T01:30:04.068Z,930.43
2023-04-30T01:31:04.107Z,930.42
2023-04-30T01:32:04.106Z,930.40
2023-04-30T01:33:04.044Z,930.41
2023-04-30T01:34:04.026Z,930.37
2023-04-30T01:35:03.995Z,930.38
2023-04-30T01:36:04.466Z,930.39
2023-04-30T01:37:04.003Z,930.38
2023-04-30T01:38:03.915Z,930.38
2023-04-30T01:39:03.952Z,930.39
2023-04-30T01:40:03.925Z,930.38
2023-04-30T01:41:03.909Z,930.39
2023-04-30T01:42:04.446Z,930.37
2023-04-30T01:43:03.930Z,930.36
2023-04-30T01:44:03.853Z,930.37
2023-04-30T01:45:03.934Z,930.34
2023-04-30T01:46:03.897Z,930.34
2023-04-30T01:47:03.951Z,930.37
2023-04-30T01:48:03.888Z,930.34
2023-04-30T01:49:03.855Z,930.34
2023-04-30T01:50:03.863Z,930.35
2023-04-30T01:51:03.838Z,930.35
2023-04-30T01:52:03.824Z,930.35
2023-04-30T01:53:03.822Z,930.36
2023-04-30T01:54:03.821Z,930.41
2023-04-30T01:55:03.869Z,930.38
2023-04-30T01:56:03.769Z,930.36
2023-04-30T01:57:03.758Z,930.35
2023-04-30T01:58:03.782Z,930.36
2023-04-30T01:59:03.719Z,930.36
2023-04-30T02:00:03.737Z,930.37
2023-04-30T02:01:03.706Z,930.36
2023-04-30T02:02:03.697Z,930.36
2023-04-30T02:03:03.786Z,930.37
2023-04-30T02:04:03.827Z,930.37
2023-04-30T02:05:03.630Z,930.39
2023-04-30T02:06:03.680Z,930.39
2023-04-30T02:07:03.633Z,930.42
2023-04-30T02:08:03.646Z,930.42
2023-04-30T02:09:03.661Z,930.43
2023-04-30T02:10:03.663Z,930.40
2023-04-30T02:11:03.690Z,930.37
2023-04-30T02:12:03.631Z,930.38
2023-04-30T02:13:03.569Z,930.37
2023-04-30T02:14:03.611Z,930.38
2023-04-30T02:15:03.573Z,930.36
2023-04-30T02:16:03.676Z,930.38
2023-04-30T02:17:03.536Z,930.38
2023-04-30T02:18:03.617Z,930.39
2023-04-30T02:19:03.520Z,930.40
2023-04-30T02:20:03.517Z,930.45
2023-04-30T02:21:03.529Z,930.45
2023-04-30T02:22:03.480Z,930.45
2023-04-30T02:23:03.474Z,930.48
2023-04-30T02:24:03.474Z,930.49
2023-04-30T02:25:03.451Z,930.45
2023-04-30T02:26:03.457Z,930.46
2023-04-30T02:27:03.458Z,930.43
2023-04-30T02:28:03.406Z,930.42
2023-04-30T02:29:03.420Z,930.42
2023-04-30T02:30:03.438Z,930.41
2023-04-30T02:31:03.427Z,930.40
2023-04-30T02:32:03.408Z,930.41
2023-04-30T02:33:03.679Z,930.41
2023-04-30T02:34:03.365Z,930.39
2023-04-30T02:35:03.348Z,930.40
2023-04-30T02:36:03.355Z,930.40
2023-04-30T02:37:03.365Z,930.40
2023-04-30T02:38:03.322Z,930.38
2023-04-30T02:39:03.289Z,930.39
2023-04-30T02:40:03.294Z,930.40
2023-04-30T02:41:03.279Z,930.42
2023-04-30T02:42:03.283Z,930.40
2023-04-30T02:43:03.291Z,930.36
2023-04-30T02:44:03.219Z,930.34
2023-04-30T02:45:03.220Z,930.35
2023-04-30T02:46:03.256Z,930.34
2023-04-30T02:47:03.214Z,930.34
2023-04-30T02:48:03.181Z,930.35
2023-04-30T02:49:03.227Z,930.35
2023-04-30T02:50:03.160Z,930.33
2023-04-30T02:51:03.136Z,930.37
2023-04-30T02:52:03.158Z,930.37
2023-04-30T02:53:03.153Z,930.35
2023-04-30T02:54:03.074Z,930.37
2023-04-30T02:55:03.086Z,930.38
2023-04-30T02:56:03.131Z,930.38
2023-04-30T02:57:03.088Z,930.36
2023-04-30T02:58:03.085Z,930.34
2023-04-30T02:59:03.094Z,930.36
2023-04-30T03:00:03.038Z,930.33
2023-04-30T03:01:03.094Z,930.31
2023-04-30T03:02:03.151Z,930.34
2023-04-30T03:03:03.130Z,930.29
2023-04-30T03:04:03.051Z,930.28
2023-04-30T03:05:03.047Z,930.27
2023-04-30T03:06:03.089Z,930.26
2023-04-30T03:07:03.054Z,930.26
2023-04-30T03:08:03.075Z,930.24
2023-04-30T03:09:02.972Z,930.21
2023-04-30T03:10:02.980Z,930.23
2023-04-30T03:11:02.999Z,930.22
2023-04-30T03:12:02.971Z,930.21
2023-04-30T03:13:02.881Z,930.20
2023-04-30T03:14:02.947Z,930.15
2023-04-30T03:15:02.891Z,930.14
2023-04-30T03:16:03.011Z,930.14
2023-04-30T03:17:02.932Z,930.11
2023-04-30T03:18:02.864Z,930.10
2023-04-30T03:19:02.845Z,930.11
2023-04-30T03:20:02.820Z,930.07
2023-04-30T03:21:03.036Z,930.06
2023-04-30T03:22:02.837Z,930.03
2023-04-30T03:23:02.844Z,930.01
2023-04-30T03:24:02.770Z,929.99
2023-04-30T03:25:02.782Z,929.97
2023-04-30T03:26:02.767Z,929.98
2023-04-30T03:27:02.771Z,929.96
2023-04-30T03:28:02.816Z,929.95
2023-04-30T03:29:02.920Z,929.95
2023-04-30T03:30:02.912Z,929.93
2023-04-30T03:31:02.975Z,929.93
2023-04-30T03:32:02.878Z,929.90
2023-04-30T03:33:02.870Z,929.91
2023-04-30T03:34:02.813Z,929.91
2023-04-30T03:35:02.780Z,929.93
2023-04-30T03:36:02.786Z,929.95
2023-04-30T03:37:02.785Z,929.92
2023-04-30T03:38:02.763Z,929.93
2023-04-30T03:39:02.720Z,929.89
2023-04-30T03:40:02.744Z,929.88
2023-04-30T03:41:02.794Z,929.88
2023-04-30T03:42:02.790Z,929.91
2023-04-30T03:43:02.729Z,929.89
2023-04-30T03:44:02.702Z,929.87
2023-04-30T03:45:02.630Z,929.91
2023-04-30T03:46:02.792Z,929.91
2023-04-30T03:47:03.563Z,929.92
2023-04-30T03:48:02.652Z,929.92
2023-04-30T03:49:02.631Z,929.88
2023-04-30T03:50:02.634Z,929.89
2023-04-30T03:51:02.539Z,929.89
2023-04-30T03:52:02.548Z,929.87
2023-04-30T03:53:02.540Z,929.86
2023-04-30T03:54:02.498Z,929.84
2023-04-30T03:55:02.497Z,929.83
2023-04-30T03:56:02.697Z,929.81
2023-04-30T03:57:02.479Z,929.79
2023-04-30T03:58:02.468Z,929.80
2023-04-30T03:59:02.520Z,929.80
2023-04-30T04:00:02.505Z,929.78
2023-04-30T04:01:02.639Z,929.77
2023-04-30T04:02:03.164Z,929.76
2023-04-30T04:03:02.443Z,929.76
2023-04-30T04:04:03.586Z,929.76
2023-04-30T04:05:02.668Z,929.75
2023-04-30T04:06:02.461Z,929.74
2023-04-30T04:07:02.371Z,929.75
2023-04-30T04:08:02.359Z,929.74
2023-04-30T04:09:02.439Z,929.74
2023-04-30T04:10:02.317Z,929.73
2023-04-30T04:11:02.689Z,929.71
2023-04-30T04:12:02.401Z,929.70
2023-04-30T04:13:02.405Z,929.68
2023-04-30T04:14:02.503Z,929.68
2023-04-30T04:15:02.484Z,929.68
2023-04-30T04:16:02.348Z,929.65
2023-04-30T04:17:02.523Z,929.64
2023-04-30T04:18:02.369Z,929.64
2023-04-30T04:19:02.310Z,929.62
2023-04-30T04:20:02.338Z,929.60
2023-04-30T04:21:02.469Z,929.59
2023-04-30T04:22:02.449Z,929.59
2023-04-30T04:23:02.252Z,929.60
2023-04-30T04:24:02.338Z,929.58
2023-04-30T04:25:02.241Z,929.57
2023-04-30T04:26:02.288Z,929.58
2023-04-30T04:27:02.182Z,929.58
2023-04-30T04:28:02.268Z,929.59
2023-04-30T04:29:02.648Z,929.58
2023-04-30T04:30:02.204Z,929.58
2023-04-30T04:31:02.212Z,929.56
2023-04-30T04:32:02.346Z,929.53
2023-04-30T04:33:02.288Z,929.50
2023-04-30T04:34:02.228Z,929.49
2023-04-30T04:35:03.264Z,929.51
2023-04-30T04:36:02.143Z,929.49
2023-04-30T04:37:02.046Z,929.47
2023-04-30T04:38:02.054Z,929.46
2023-04-30T04:39:02.210Z,929.44
2023-04-30T04:40:02.170Z,929.44
2023-04-30T04:41:02.476Z,929.42
2023-04-30T04:42:02.074Z,929.43
2023-04-30T04:43:02.088Z,929.41
2023-04-30T04:44:02.391Z,929.40
2023-04-30T04:45:02.096Z,929.41
2023-04-30T04:46:02.043Z,929.43
2023-04-30T04:47:02.106Z,929.39
2023-04-30T04:48:02.177Z,929.40
2023-04-30T04:49:02.008Z,929.39
2023-04-30T04:50:01.970Z,929.37
2023-04-30T04:51:02.027Z,929.35
2023-04-30T04:52:02.000Z,929.33
2023-04-30T04:53:02.183Z,929.32
2023-04-30T04:54:01.896Z,929.31
2023-04-30T04:55:01.921Z,929.33
2023-04-30T04:56:01.970Z,929.33
2023-04-30T04:57:01.792Z,929.31
2023-04-30T04:58:01.800Z,929.30
2023-04-30T04:59:01.817Z,929.29
2023-04-30T05:00:01.889Z,929.33
2023-04-30T05:01:01.808Z,929.30
2023-04-30T05:02:01.872Z,929.24
2023-04-30T05:03:01.910Z,929.25
2023-04-30T05:04:01.859Z,929.23
2023-04-30T05:05:01.776Z,929.23
2023-04-30T05:06:01.710Z,929.25
2023-04-30T05:07:01.790Z,929.21
2023-04-30T05:08:01.774Z,929.22
2023-04-30T05:09:02.620Z,929.23
2023-04-30T05:10:01.785Z,929.23
2023-04-30T05:11:01.673Z,929.23
2023-04-30T05:12:01.682Z,929.24
2023-04-30T05:13:01.688Z,929.23
2023-04-30T05:14:01.708Z,929.25
2023-04-30T05:15:01.648Z,929.24
2023-04-30T05:16:01.679Z,929.25
2023-04-30T05:17:01.651Z,929.25
2023-04-30T05:18:01.585Z,929.24
2023-04-30T05:19:01.684Z,929.24
2023-04-30T05:20:01.567Z,929.23
2023-04-30T05:21:01.578Z,929.23
2023-04-30T05:22:01.586Z,929.23
2023-04-30T05:23:01.592Z,929.22
2023-04-30T05:24:01.551Z,929.22
2023-04-30T05:25:01.580Z,929.21
2023-04-30T05:26:01.510Z,929.21
2023-04-30T05:27:01.569Z,929.19
2023-04-30T05:28:01.535Z,929.18
2023-04-30T05:29:01.523Z,929.20
2023-04-30T05:30:01.504Z,929.20
2023-04-30T05:31:01.523Z,929.22
2023-04-30T05:32:01.543Z,929.21
2023-04-30T05:33:01.501Z,929.20
2023-04-30T05:34:01.419Z,929.22
2023-04-30T05:35:01.430Z,929.21
2023-04-30T05:36:01.547Z,929.21
2023-04-30T05:37:01.314Z,929.23
2023-04-30T05:38:01.320Z,929.21
2023-04-30T05:39:01.262Z,929.21
2023-04-30T05:40:01.267Z,929.22
2023-04-30T05:41:01.233Z,929.20
2023-04-30T05:42:01.327Z,929.20
2023-04-30T05:43:01.285Z,929.18
2023-04-30T05:44:01.193Z,929.16
2023-04-30T05:45:01.170Z,929.16
2023-04-30T05:46:01.297Z,929.14
2023-04-30T05:47:01.172Z,929.15
2023-04-30T05:48:01.276Z,929.13
2023-04-30T05:49:01.322Z,929.12
2023-04-30T05:50:01.130Z,929.12
2023-04-30T05:51:01.726Z,929.11
2023-04-30T05:52:01.091Z,929.10
2023-04-30T05:53:01.114Z,929.09
2023-04-30T05:54:01.104Z,929.10
2023-04-30T05:55:01.109Z,929.07
2023-04-30T05:56:01.087Z,929.06
2023-04-30T05:57:01.085Z,929.04
2023-04-30T05:58:01.176Z,929.05
2023-04-30T05:59:01.103Z,929.03
2023-04-30T06:00:01.047Z,928.99
2023-04-30T06:01:01.098Z,929.00
2023-04-30T06:02:01.077Z,928.96
2023-04-30T06:03:01.037Z,928.96
2023-04-30T06:04:01.029Z,928.96
2023-04-30T06:05:01.070Z,928.98
2023-04-30T06:06:01.075Z,928.95
2023-04-30T06:07:01.056Z,928.96
2023-04-30T06:08:01.046Z,929.00
2023-04-30T06:09:00.982Z,928.99
2023-04-30T06:10:00.958Z,929.01
2023-04-30T06:11:00.959Z,929.02
2023-04-30T06:12:00.922Z,929.00
2023-04-30T06:13:01.015Z,928.99
2023-04-30T06:14:00.906Z,928.99
2023-04-30T06:15:01.099Z,928.97
2023-04-30T06:16:00.938Z,928.97
2023-04-30T06:17:01.140Z,928.98
2023-04-30T06:18:00.975Z,928.97
2023-04-30T06:19:01.011Z,928.97
2023-04-30T06:20:01.131Z,928.97
2023-04-30T06:21:00.926Z,928.99
2023-04-30T06:22:00.933Z,929.01
2023-04-30T06:23:01.025Z,929.00
2023-04-30T06:24:00.961Z,929.02
2023-04-30T06:25:00.978Z,929.02
2023-04-30T06:26:00.871Z,929.02
2023-04-30T06:27:00.868Z,929.02
2023-04-30T06:28:01.698Z,929.00
2023-04-30T06:29:00.798Z,929.00
2023-04-30T06:30:01.026Z,928.97
2023-04-30T06:31:01.638Z,928.95
2023-04-30T06:32:00.798Z,928.95
2023-04-30T06:33:00.821Z,928.96
2023-04-30T06:34:00.807Z,928.94
2023-04-30T06:35:00.815Z,928.91
2023-04-30T06:36:01.638Z,928.92
2023-04-30T06:37:01.658Z,928.92
2023-04-30T06:38:00.645Z,928.90
2023-04-30T06:39:00.737Z,928.91
2023-04-30T06:40:00.668Z,928.90
2023-04-30T06:41:00.768Z,928.88
2023-04-30T06:42:00.765Z,928.86
2023-04-30T06:43:00.678Z,928.83
2023-04-30T06:44:00.683Z,928.85
2023-04-30T06:45:00.686Z,928.85
2023-04-30T06:46:00.817Z,928.82
2023-04-30T06:47:00.635Z,928.82
2023-04-30T06:48:00.692Z,928.79
2023-04-30T06:49:00.607Z,928.81
2023-04-30T06:50:00.626Z,928.81
2023-04-30T06:51:00.634Z,928.79
2023-04-30T06:52:01.078Z,928.79
2023-04-30T06:53:00.648Z,928.77
2023-04-30T06:54:00.454Z,928.78
2023-04-30T06:55:00.458Z,928.78
2023-04-30T06:56:00.558Z,928.78
2023-04-30T06:57:00.452Z,928.75
2023-04-30T06:58:00.453Z,928.77
2023-04-30T06:59:00.462Z,928.76
2023-04-30T07:00:00.362Z,928.75
2023-04-30T07:01:00.481Z,928.75
2023-04-30T07:02:00.598Z,928.72
2023-04-30T07:03:00.552Z,928.71
2023-04-30T07:04:00.490Z,928.73
2023-04-30T07:05:01.424Z,928.76
2023-04-30T07:06:00.384Z,928.71
2023-04-30T07:07:00.406Z,928.71
2023-04-30T07:08:00.438Z,928.72
2023-04-30T07:09:00.310Z,928.71
2023-04-30T07:10:00.368Z,928.71
2023-04-30T07:11:00.266Z,928.70
2023-04-30T07:12:00.273Z,928.72
2023-04-30T07:13:00.342Z,928.70
2023-04-30T07:14:00.789Z,928.71
2023-04-30T07:15:00.189Z,928.69
2023-04-30T07:16:00.305Z,928.69
2023-04-30T07:17:00.196Z,928.69
2023-04-30T07:18:00.268Z,928.70
2023-04-30T07:19:00.242Z,928.70
2023-04-30T07:20:00.220Z,928.68
2023-04-30T07:21:00.312Z,928.71
2023-04-30T07:22:00.160Z,928.70
2023-04-30T07:23:00.366Z,928.69
2023-04-30T07:24:00.225Z,928.69
2023-04-30T07:25:00.552Z,928.68
2023-04-30T07:26:00.127Z,928.67
2023-04-30T07:27:00.107Z,928.68
2023-04-30T07:28:00.114Z,928.67
2023-04-30T07:29:00.140Z,928.68
2023-04-30T07:30:00.094Z,928.67
2023-04-30T07:31:00.631Z,928.70
2023-04-30T07:32:00.237Z,928.64
2023-04-30T07:33:00.154Z,928.64
2023-04-30T07:33:59.989Z,928.64
2023-04-30T07:34:59.998Z,928.64
2023-04-30T07:36:00.619Z,928.63
2023-04-30T07:37:00.206Z,928.65
2023-04-30T07:38:00.025Z,928.67
2023-04-30T07:39:00.030Z,928.68
2023-04-30T07:39:59.927Z,928.69
2023-04-30T07:40:59.941Z,928.71
2023-04-30T07:41:59.944Z,928.72
2023-04-30T07:43:00.060Z,928.73
2023-04-30T07:43:59.901Z,928.74
2023-04-30T07:44:59.876Z,928.73
2023-04-30T07:45:59.996Z,928.75
2023-04-30T07:46:59.885Z,928.73
2023-04-30T07:47:59.911Z,928.73
2023-04-30T07:48:59.893Z,928.72
2023-04-30T07:49:59.896Z,928.70
2023-04-30T07:50:59.848Z,928.69
2023-04-30T07:51:59.850Z,928.71
2023-04-30T07:52:59.856Z,928.72
2023-04-30T07:53:59.824Z,928.74
2023-04-30T07:54:59.826Z,928.74
2023-04-30T07:55:59.853Z,928.75
2023-04-30T07:56:59.849Z,928.75
2023-04-30T07:57:59.859Z,928.77
2023-04-30T07:58:59.853Z,928.76
2023-04-30T07:59:59.753Z,928.75
2023-04-30T08:00:59.770Z,928.76
2023-04-30T08:01:59.731Z,928.74
2023-04-30T08:02:59.774Z,928.74
2023-04-30T08:03:59.783Z,928.75
2023-04-30T08:04:59.704Z,928.75
2023-04-30T08:05:59.733Z,928.76
2023-04-30T08:06:59.708Z,928.77
2023-04-30T08:07:59.693Z,928.79
2023-04-30T08:08:59.625Z,928.78
2023-04-30T08:09:59.640Z,928.79
2023-04-30T08:10:59.622Z,928.80
2023-04-30T08:11:59.647Z,928.79
2023-04-30T08:12:59.557Z,928.80
2023-04-30T08:13:59.591Z,928.81
2023-04-30T08:14:59.533Z,928.81
2023-04-30T08:15:59.567Z,928.82
2023-04-30T08:16:59.584Z,928.83
2023-04-30T08:17:59.637Z,928.82
2023-04-30T08:18:59.524Z,928.84
2023-04-30T08:19:59.593Z,928.88
2023-04-30T08:20:59.611Z,928.88
2023-04-30T08:21:59.515Z,928.88
2023-04-30T08:22:59.518Z,928.90
2023-04-30T08:23:59.526Z,928.91
2023-04-30T08:24:59.431Z,928.92
2023-04-30T08:26:00.237Z,928.93
2023-04-30T08:26:59.524Z,928.93
2023-04-30T08:27:59.437Z,928.94
2023-04-30T08:28:59.454Z,928.93
2023-04-30T08:29:59.561Z,928.93
2023-04-30T08:30:59.449Z,928.94
2023-04-30T08:31:59.440Z,928.94
2023-04-30T08:32:59.442Z,928.96
2023-04-30T08:33:59.373Z,928.97
2023-04-30T08:34:59.375Z,928.97
2023-04-30T08:35:59.394Z,928.98
2023-04-30T08:36:59.382Z,929.00
2023-04-30T08:37:59.310Z,929.02
2023-04-30T08:38:59.312Z,929.03
2023-04-30T08:39:59.320Z,929.05
2023-04-30T08:40:59.330Z,929.05
2023-04-30T08:41:59.343Z,929.05
2023-04-30T08:42:59.957Z,929.05
2023-04-30T08:43:59.225Z,929.07
2023-04-30T08:44:59.229Z,929.08
2023-04-30T08:45:59.250Z,929.09
2023-04-30T08:46:59.246Z,929.11
2023-04-30T08:47:59.330Z,929.12
2023-04-30T08:48:59.233Z,929.14
2023-04-30T08:49:59.190Z,929.15
2023-04-30T08:50:59.175Z,929.16
2023-04-30T08:51:59.187Z,929.17
2023-04-30T08:52:59.195Z,929.19
2023-04-30T08:53:59.297Z,929.20
2023-04-30T08:54:59.166Z,929.21
2023-04-30T08:55:59.118Z,929.24
2023-04-30T08:56:59.630Z,929.24
2023-04-30T08:57:59.199Z,929.23
2023-04-30T08:58:59.150Z,929.24
2023-04-30T08:59:59.135Z,929.23
2023-04-30T09:00:59.141Z,929.25
2023-04-30T09:01:59.138Z,929.27
2023-04-30T09:02:59.216Z,929.29
2023-04-30T09:04:00.177Z,929.31
2023-04-30T09:04:59.066Z,929.33
2023-04-30T09:05:59.094Z,929.35
2023-04-30T09:06:59.106Z,929.37
2023-04-30T09:08:03.695Z,929.39
2023-04-30T09:08:59.059Z,929.42
2023-04-30T09:09:59.064Z,929.44
2023-04-30T09:10:59.003Z,929.45
2023-04-30T09:11:59.015Z,929.48
2023-04-30T09:12:59.014Z,929.48
2023-04-30T09:13:58.920Z,929.52
2023-04-30T09:14:59.032Z,929.53
2023-04-30T09:15:59.064Z,929.57
2023-04-30T09:16:58.906Z,929.58
2023-04-30T09:17:58.967Z,929.61
2023-04-30T09:18:58.916Z,929.63
2023-04-30T09:19:58.837Z,929.65
2023-04-30T09:20:58.884Z,929.70
2023-04-30T09:21:59.076Z,929.70
2023-04-30T09:22:58.842Z,929.72
2023-04-30T09:23:58.846Z,929.73
2023-04-30T09:24:58.894Z,929.77
2023-04-30T09:25:58.877Z,929.78
2023-04-30T09:26:58.871Z,929.78
2023-04-30T09:27:58.769Z,929.82
2023-04-30T09:28:58.775Z,929.79
2023-04-30T09:29:59.608Z,929.78
2023-04-30T09:30:58.798Z,929.81
2023-04-30T09:31:58.859Z,929.83
2023-04-30T09:32:58.760Z,929.85
2023-04-30T09:33:58.710Z,929.86
2023-04-30T09:34:58.713Z,929.84
2023-04-30T09:35:59.746Z,929.89
2023-04-30T09:36:58.647Z,929.83
2023-04-30T09:37:58.653Z,929.88
2023-04-30T09:38:58.657Z,929.83
2023-04-30T09:39:58.660Z,929.84
2023-04-30T09:40:58.770Z,929.83
2023-04-30T09:41:58.669Z,929.84
2023-04-30T09:42:58.668Z,929.84
2023-04-30T09:43:58.574Z,929.85
2023-04-30T09:44:58.624Z,929.85
2023-04-30T09:45:59.091Z,929.86
2023-04-30T09:46:58.992Z,929.86
2023-04-30T09:48:05.777Z,929.85
2023-04-30T09:48:58.535Z,929.86
2023-04-30T09:49:58.633Z,929.87
2023-04-30T09:50:58.541Z,929.89
2023-04-30T09:51:58.555Z,929.89
2023-04-30T09:52:58.530Z,929.89
2023-04-30T09:53:58.452Z,929.92
2023-04-30T09:54:58.543Z,929.88
2023-04-30T09:55:58.599Z,929.88
2023-04-30T09:56:58.492Z,929.90
2023-04-30T09:57:58.459Z,929.90
2023-04-30T09:58:58.471Z,929.90
2023-04-30T09:59:58.498Z,929.89
2023-04-30T10:00:58.445Z,929.90
2023-04-30T10:01:58.404Z,929.91
2023-04-30T10:02:58.433Z,929.91
2023-04-30T10:03:58.449Z,929.94
2023-04-30T10:04:58.443Z,929.93
2023-04-30T10:05:58.389Z,929.93
2023-04-30T10:06:58.319Z,929.93
2023-04-30T10:07:58.341Z,929.94
2023-04-30T10:08:58.327Z,929.95
2023-04-30T10:09:58.343Z,929.94
2023-04-30T10:10:58.346Z,929.94
2023-04-30T10:11:58.386Z,929.95
2023-04-30T10:12:58.398Z,929.98
2023-04-30T10:13:58.284Z,929.98
2023-04-30T10:14:58.300Z,930.00
2023-04-30T10:15:58.404Z,930.02
2023-04-30T10:16:58.401Z,930.03
2023-04-30T10:17:58.371Z,930.04
2023-04-30T10:18:58.218Z,930.03
2023-04-30T10:19:58.233Z,930.03
2023-04-30T10:20:58.230Z,930.03
2023-04-30T10:21:58.238Z,930.02
2023-04-30T10:22:58.220Z,930.01
2023-04-30T10:23:58.229Z,930.01
2023-04-30T10:24:58.152Z,930.02
2023-04-30T10:25:58.236Z,929.99
2023-04-30T10:26:58.651Z,930.01
2023-04-30T10:27:59.189Z,929.99
2023-04-30T10:28:58.162Z,929.98
2023-04-30T10:29:58.333Z,929.99
2023-04-30T10:30:58.181Z,929.99
2023-04-30T10:31:58.095Z,930.00
2023-04-30T10:32:58.205Z,930.02
2023-04-30T10:33:58.109Z,930.04
2023-04-30T10:34:58.113Z,930.01
2023-04-30T10:35:58.020Z,930.00
2023-04-30T10:36:58.008Z,930.02
2023-04-30T10:37:58.000Z,929.99
2023-04-30T10:38:58.019Z,930.02
2023-04-30T10:39:58.026Z,930.00
2023-04-30T10:40:58.037Z,930.00
2023-04-30T10:41:57.953Z,930.01
2023-04-30T10:42:57.937Z,930.01
2023-04-30T10:43:59.505Z,930.03
2023-04-30T10:44:58.284Z,930.06
2023-04-30T10:45:57.979Z,930.06
2023-04-30T10:46:57.903Z,930.08
2023-04-30T10:47:57.919Z,930.09
2023-04-30T10:48:57.899Z,930.08
2023-04-30T10:49:57.884Z,930.10
2023-04-30T10:50:57.918Z,930.10
2023-04-30T10:51:57.891Z,930.12
2023-04-30T10:52:57.816Z,930.12
2023-04-30T10:53:57.836Z,930.15
2023-04-30T10:54:57.828Z,930.15
2023-04-30T10:55:57.821Z,930.16
2023-04-30T10:56:57.856Z,930.15
2023-04-30T10:57:57.854Z,930.16
2023-04-30T10:58:57.878Z,930.16
2023-04-30T10:59:57.848Z,930.16
2023-04-30T11:00:57.813Z,930.15
2023-04-30T11:01:57.933Z,930.17
2023-04-30T11:02:58.281Z,930.15
2023-04-30T11:03:57.800Z,930.14
2023-04-30T11:04:57.764Z,930.14
2023-04-30T11:05:57.891Z,930.14
2023-04-30T11:06:57.723Z,930.16
2023-04-30T11:07:57.732Z,930.17
2023-04-30T11:08:58.123Z,930.20
2023-04-30T11:09:57.902Z,930.21
2023-04-30T11:10:57.642Z,930.22
2023-04-30T11:11:57.624Z,930.23
2023-04-30T11:12:58.641Z,930.20
2023-04-30T11:13:57.637Z,930.19
2023-04-30T11:14:57.648Z,930.21
2023-04-30T11:15:57.681Z,930.24
2023-04-30T11:16:57.546Z,930.25
2023-04-30T11:17:57.579Z,930.25
2023-04-30T11:18:57.662Z,930.25
2023-04-30T11:19:57.670Z,930.24
2023-04-30T11:20:57.611Z,930.25
2023-04-30T11:21:57.585Z,930.25
2023-04-30T11:22:57.525Z,930.25
2023-04-30T11:23:57.514Z,930.25
2023-04-30T11:24:57.502Z,930.25
2023-04-30T11:25:57.849Z,930.27
2023-04-30T11:26:57.624Z,930.27
2023-04-30T11:27:57.681Z,930.28
2023-04-30T11:28:57.565Z,930.31
2023-04-30T11:29:57.727Z,930.34
2023-04-30T11:30:57.620Z,930.33
2023-04-30T11:31:57.507Z,930.35
2023-04-30T11:32:58.209Z,930.33
2023-04-30T11:33:57.489Z,930.33
2023-04-30T11:34:57.473Z,930.34
2023-04-30T11:35:57.397Z,930.31
2023-04-30T11:36:57.380Z,930.32
2023-04-30T11:37:57.380Z,930.37
2023-04-30T11:38:57.359Z,930.40
2023-04-30T11:39:57.419Z,930.41
2023-04-30T11:40:57.327Z,930.40
2023-04-30T11:41:57.366Z,930.40
2023-04-30T11:42:57.326Z,930.43
2023-04-30T11:43:57.324Z,930.46
2023-04-30T11:44:57.246Z,930.46
2023-04-30T11:45:57.258Z,930.48
2023-04-30T11:46:57.316Z,930.49
2023-04-30T11:47:57.298Z,930.50
2023-04-30T11:48:57.256Z,930.52
2023-04-30T11:49:57.521Z,930.54
2023-04-30T11:50:57.269Z,930.56
2023-04-30T11:51:57.232Z,930.57
2023-04-30T11:52:57.196Z,930.58
2023-04-30T11:53:57.292Z,930.59
2023-04-30T11:54:57.255Z,930.62
2023-04-30T11:55:57.210Z,930.62
2023-04-30T11:56:57.162Z,930.67
2023-04-30T11:57:57.159Z,930.67
2023-04-30T11:58:57.155Z,930.67
2023-04-30T11:59:57.212Z,930.67
2023-04-30T12:00:57.147Z,930.67
2023-04-30T12:01:57.164Z,930.71
2023-04-30T12:02:57.294Z,930.70
2023-04-30T12:03:57.172Z,930.71
2023-04-30T12:04:57.060Z,930.72
2023-04-30T12:05:57.211Z,930.71
2023-04-30T12:06:57.105Z,930.73
2023-04-30T12:07:57.188Z,930.76
2023-04-30T12:08:57.016Z,930.76
2023-04-30T12:09:57.476Z,930.76
2023-04-30T12:10:57.026Z,930.76
2023-04-30T12:11:57.037Z,930.76
2023-04-30T12:12:57.122Z,930.77
2023-04-30T12:13:57.071Z,930.79
2023-04-30T12:14:56.966Z,930.79
2023-04-30T12:15:56.957Z,930.81
2023-04-30T12:16:57.057Z,930.81
2023-04-30T12:17:57.168Z,930.80
2023-04-30T12:18:57.074Z,930.78
2023-04-30T12:19:57.168Z,930.79
2023-04-30T12:20:56.917Z,930.79
2023-04-30T12:21:56.994Z,930.78
2023-04-30T12:22:57.024Z,930.79
2023-04-30T12:23:56.907Z,930.81
2023-04-30T12:24:56.935Z,930.81
2023-04-30T12:25:57.938Z,930.83
2023-04-30T12:26:56.947Z,930.86
2023-04-30T12:27:56.936Z,930.85